sensor_id;sensor_type;location;lat;lon;timestamp;temperature;humidity
16814;DHT22;8524;57.650;11.926;2023-03-01T00:01:34;-1.90;99.90
16814;DHT22;8524;57.650;11.926;2023-03-01T00:04:01;-1.90;99.90
16814;DHT22;8524;57.650;11.926;2023-03-01T00:06:28;-1.90;99.90
16814;DHT22;8524;57.650;11.926;2023-03-01T00:08:56;-1.90;99.90
16814;DHT22;8524;57.650;11.926;2023-03-01T00:11:25;-1.90;99.90
16814;DHT22;8524;57.650;11.926;2023-03-01T00:13:54;-1.90;99.90
16814;DHT22;8524;57.650;11.926;2023-03-01T00:16:27;-1.90;99.90
16814;DHT22;8524;57.650;11.926;2023-03-01T00:18:55;-2.00;99.90
16814;DHT22;8524;57.650;11.926;2023-03-01T00:21:23;-1.90;99.90
16814;DHT22;8524;57.650;11.926;2023-03-01T00:23:50;-1.90;99.90
16814;DHT22;8524;57.650;11.926;2023-03-01T00:26:19;-1.90;99.90
16814;DHT22;8524;57.650;11.926;2023-03-01T00:28:47;-1.90;99.90
16814;DHT22;8524;57.650;11.926;2023-03-01T00:31:16;-1.90;99.90
16814;DHT22;8524;57.650;11.926;2023-03-01T00:33:45;-1.90;99.90
16814;DHT22;8524;57.650;11.926;2023-03-01T00:36:14;-2.00;99.90
16814;DHT22;8524;57.650;11.926;2023-03-01T00:38:43;-2.00;99.90
16814;DHT22;8524;57.650;11.926;2023-03-01T00:41:13;-2.00;99.90
16814;DHT22;8524;57.650;11.926;2023-03-01T00:43:40;-2.00;99.90
16814;DHT22;8524;57.650;11.926;2023-03-01T00:46:10;-2.00;99.90
16814;DHT22;8524;57.650;11.926;2023-03-01T00:48:37;-2.00;99.90
16814;DHT22;8524;57.650;11.926;2023-03-01T00:51:08;-2.00;99.90
16814;DHT22;8524;57.650;11.926;2023-03-01T00:53:36;-2.00;99.90
16814;DHT22;8524;57.650;11.926;2023-03-01T00:56:04;-1.90;99.90
16814;DHT22;8524;57.650;11.926;2023-03-01T00:58:31;-2.00;99.90
16814;DHT22;8524;57.650;11.926;2023-03-01T01:00:59;-2.00;99.90
16814;DHT22;8524;57.650;11.926;2023-03-01T01:03:26;-2.10;99.90
16814;DHT22;8524;57.650;11.926;2023-03-01T01:05:53;-2.10;99.90
16814;DHT22;8524;57.650;11.926;2023-03-01T01:08:22;-2.10;99.90
16814;DHT22;8524;57.650;11.926;2023-03-01T01:10:49;-2.00;99.90
16814;DHT22;8524;57.650;11.926;2023-03-01T01:13:16;-2.00;99.90
16814;DHT22;8524;57.650;11.926;2023-03-01T01:15:43;-2.00;99.90
16814;DHT22;8524;57.650;11.926;2023-03-01T01:18:10;-2.10;99.90
16814;DHT22;8524;57.650;11.926;2023-03-01T01:20:37;-2.10;99.90
16814;DHT22;8524;57.650;11.926;2023-03-01T01:23:05;-2.20;99.90
16814;DHT22;8524;57.650;11.926;2023-03-01T01:25:35;-2.20;99.90
16814;DHT22;8524;57.650;11.926;2023-03-01T01:28:03;-2.20;99.90
16814;DHT22;8524;57.650;11.926;2023-03-01T01:30:30;-2.20;99.90
16814;DHT22;8524;57.650;11.926;2023-03-01T01:32:57;-2.20;99.90
16814;DHT22;8524;57.650;11.926;2023-03-01T01:35:25;-2.30;99.90
16814;DHT22;8524;57.650;11.926;2023-03-01T01:37:52;-2.30;99.90
16814;DHT22;8524;57.650;11.926;2023-03-01T01:40:19;-2.30;99.90
16814;DHT22;8524;57.650;11.926;2023-03-01T01:42:47;-2.30;99.90
16814;DHT22;8524;57.650;11.926;2023-03-01T01:45:32;-2.30;99.90
16814;DHT22;8524;57.650;11.926;2023-03-01T01:48:03;-2.30;99.90
16814;DHT22;8524;57.650;11.926;2023-03-01T01:50:33;-2.30;99.90
16814;DHT22;8524;57.650;11.926;2023-03-01T01:53:06;-2.30;99.90
16814;DHT22;8524;57.650;11.926;2023-03-01T01:55:36;-2.30;99.90
16814;DHT22;8524;57.650;11.926;2023-03-01T01:58:08;-2.30;99.90
16814;DHT22;8524;57.650;11.926;2023-03-01T02:00:37;-2.30;99.90
16814;DHT22;8524;57.650;11.926;2023-03-01T02:03:10;-2.30;99.90
16814;DHT22;8524;57.650;11.926;2023-03-01T02:05:42;-2.40;99.90
16814;DHT22;8524;57.650;11.926;2023-03-01T02:08:13;-2.40;99.90
16814;DHT22;8524;57.650;11.926;2023-03-01T02:10:41;-2.40;99.90
16814;DHT22;8524;57.650;11.926;2023-03-01T02:13:10;-2.40;99.90
16814;DHT22;8524;57.650;11.926;2023-03-01T02:15:39;-2.40;99.90
16814;DHT22;8524;57.650;11.926;2023-03-01T02:18:10;-2.40;99.90
16814;DHT22;8524;57.650;11.926;2023-03-01T02:20:48;-2.50;99.90
16814;DHT22;8524;57.650;11.926;2023-03-01T02:23:17;-2.50;99.90
16814;DHT22;8524;57.650;11.926;2023-03-01T02:25:50;-2.50;99.90
16814;DHT22;8524;57.650;11.926;2023-03-01T02:28:30;-2.50;99.90
16814;DHT22;8524;57.650;11.926;2023-03-01T02:30:57;-2.40;99.90
16814;DHT22;8524;57.650;11.926;2023-03-01T02:33:43;-2.60;99.90
16814;DHT22;8524;57.650;11.926;2023-03-01T02:36:14;-2.60;99.90
16814;DHT22;8524;57.650;11.926;2023-03-01T02:38:42;-2.60;99.90
16814;DHT22;8524;57.650;11.926;2023-03-01T02:41:11;-2.60;99.90
16814;DHT22;8524;57.650;11.926;2023-03-01T02:43:40;-2.60;99.90
16814;DHT22;8524;57.650;11.926;2023-03-01T02:46:12;-2.60;99.90
16814;DHT22;8524;57.650;11.926;2023-03-01T02:48:41;-2.60;99.90
16814;DHT22;8524;57.650;11.926;2023-03-01T02:51:17;-2.50;99.90
16814;DHT22;8524;57.650;11.926;2023-03-01T02:53:52;-2.50;99.90
16814;DHT22;8524;57.650;11.926;2023-03-01T02:56:21;-2.50;99.90
16814;DHT22;8524;57.650;11.926;2023-03-01T02:58:50;-2.50;99.90
16814;DHT22;8524;57.650;11.926;2023-03-01T03:01:18;-2.50;99.90
16814;DHT22;8524;57.650;11.926;2023-03-01T03:03:46;-2.50;99.90
16814;DHT22;8524;57.650;11.926;2023-03-01T03:06:13;-2.50;99.90
16814;DHT22;8524;57.650;11.926;2023-03-01T03:08:40;-2.50;99.90
16814;DHT22;8524;57.650;11.926;2023-03-01T03:11:07;-2.50;99.90
16814;DHT22;8524;57.650;11.926;2023-03-01T03:13:34;-2.50;99.90
16814;DHT22;8524;57.650;11.926;2023-03-01T03:16:03;-2.50;99.90
16814;DHT22;8524;57.650;11.926;2023-03-01T03:18:30;-2.50;99.90
16814;DHT22;8524;57.650;11.926;2023-03-01T03:20:57;-2.50;99.90
16814;DHT22;8524;57.650;11.926;2023-03-01T03:23:24;-2.50;99.90
16814;DHT22;8524;57.650;11.926;2023-03-01T03:25:51;-2.60;99.90
16814;DHT22;8524;57.650;11.926;2023-03-01T03:28:18;-2.70;99.90
16814;DHT22;8524;57.650;11.926;2023-03-01T03:30:45;-2.70;99.90
16814;DHT22;8524;57.650;11.926;2023-03-01T03:33:14;-2.70;99.90
16814;DHT22;8524;57.650;11.926;2023-03-01T03:35:45;-2.70;99.90
16814;DHT22;8524;57.650;11.926;2023-03-01T03:38:13;-2.70;99.90
16814;DHT22;8524;57.650;11.926;2023-03-01T03:40:44;-2.70;99.90
16814;DHT22;8524;57.650;11.926;2023-03-01T03:43:13;-2.80;99.90
16814;DHT22;8524;57.650;11.926;2023-03-01T03:45:41;-2.80;99.90
16814;DHT22;8524;57.650;11.926;2023-03-01T03:48:09;-2.80;99.90
16814;DHT22;8524;57.650;11.926;2023-03-01T03:50:38;-2.80;99.90
16814;DHT22;8524;57.650;11.926;2023-03-01T03:53:08;-2.80;99.90
16814;DHT22;8524;57.650;11.926;2023-03-01T03:55:35;-2.80;99.90
16814;DHT22;8524;57.650;11.926;2023-03-01T03:58:06;-2.80;99.90
16814;DHT22;8524;57.650;11.926;2023-03-01T04:00:34;-2.80;99.90
16814;DHT22;8524;57.650;11.926;2023-03-01T04:03:02;-2.80;99.90
16814;DHT22;8524;57.650;11.926;2023-03-01T04:05:30;-2.80;99.90
16814;DHT22;8524;57.650;11.926;2023-03-01T04:07:59;-2.80;99.90
16814;DHT22;8524;57.650;11.926;2023-03-01T04:10:34;-2.80;99.90
16814;DHT22;8524;57.650;11.926;2023-03-01T04:13:01;-2.80;99.90
16814;DHT22;8524;57.650;11.926;2023-03-01T04:15:30;-2.80;99.90
16814;DHT22;8524;57.650;11.926;2023-03-01T04:17:58;-2.80;99.90
16814;DHT22;8524;57.650;11.926;2023-03-01T04:20:27;-2.80;99.90
16814;DHT22;8524;57.650;11.926;2023-03-01T04:23:00;-2.80;99.90
16814;DHT22;8524;57.650;11.926;2023-03-01T04:25:37;-2.90;99.90
16814;DHT22;8524;57.650;11.926;2023-03-01T04:28:05;-2.80;99.90
16814;DHT22;8524;57.650;11.926;2023-03-01T04:30:32;-2.90;99.90
16814;DHT22;8524;57.650;11.926;2023-03-01T04:33:03;-2.90;99.90
16814;DHT22;8524;57.650;11.926;2023-03-01T04:35:30;-3.00;99.90
16814;DHT22;8524;57.650;11.926;2023-03-01T04:37:58;-3.00;99.90
16814;DHT22;8524;57.650;11.926;2023-03-01T04:40:25;-3.00;99.90
16814;DHT22;8524;57.650;11.926;2023-03-01T04:42:52;-3.00;99.90
16814;DHT22;8524;57.650;11.926;2023-03-01T04:45:21;-3.00;99.90
16814;DHT22;8524;57.650;11.926;2023-03-01T04:47:48;-2.90;99.90
16814;DHT22;8524;57.650;11.926;2023-03-01T04:50:18;-2.90;99.90
16814;DHT22;8524;57.650;11.926;2023-03-01T04:52:46;-2.90;99.90
16814;DHT22;8524;57.650;11.926;2023-03-01T04:55:15;-3.00;99.90
16814;DHT22;8524;57.650;11.926;2023-03-01T04:57:42;-3.00;99.90
16814;DHT22;8524;57.650;11.926;2023-03-01T05:00:11;-3.00;99.90
16814;DHT22;8524;57.650;11.926;2023-03-01T05:02:50;-3.00;99.90
16814;DHT22;8524;57.650;11.926;2023-03-01T05:05:25;-2.90;99.90
16814;DHT22;8524;57.650;11.926;2023-03-01T05:07:53;-3.00;99.90
16814;DHT22;8524;57.650;11.926;2023-03-01T05:10:22;-3.00;99.90
16814;DHT22;8524;57.650;11.926;2023-03-01T05:12:50;-2.90;99.90
16814;DHT22;8524;57.650;11.926;2023-03-01T05:15:18;-3.00;99.90
16814;DHT22;8524;57.650;11.926;2023-03-01T05:17:47;-2.90;99.90
16814;DHT22;8524;57.650;11.926;2023-03-01T05:20:15;-2.90;99.90
16814;DHT22;8524;57.650;11.926;2023-03-01T05:22:42;-2.80;99.90
16814;DHT22;8524;57.650;11.926;2023-03-01T05:25:09;-2.80;99.90
16814;DHT22;8524;57.650;11.926;2023-03-01T05:27:38;-2.80;99.90
16814;DHT22;8524;57.650;11.926;2023-03-01T05:30:06;-2.80;99.90
16814;DHT22;8524;57.650;11.926;2023-03-01T05:32:41;-2.80;99.90
16814;DHT22;8524;57.650;11.926;2023-03-01T05:35:11;-2.80;99.90
16814;DHT22;8524;57.650;11.926;2023-03-01T05:37:41;-2.80;99.90
16814;DHT22;8524;57.650;11.926;2023-03-01T05:40:10;-2.80;99.90
16814;DHT22;8524;57.650;11.926;2023-03-01T05:42:46;-2.80;99.90
16814;DHT22;8524;57.650;11.926;2023-03-01T05:45:14;-2.80;99.90
16814;DHT22;8524;57.650;11.926;2023-03-01T05:47:43;-2.80;99.90
16814;DHT22;8524;57.650;11.926;2023-03-01T05:50:12;-2.80;99.90
16814;DHT22;8524;57.650;11.926;2023-03-01T05:52:39;-2.80;99.90
16814;DHT22;8524;57.650;11.926;2023-03-01T05:55:07;-2.80;99.90
16814;DHT22;8524;57.650;11.926;2023-03-01T05:57:34;-2.80;99.90
16814;DHT22;8524;57.650;11.926;2023-03-01T06:00:03;-2.80;99.90
16814;DHT22;8524;57.650;11.926;2023-03-01T06:02:32;-2.80;99.90
16814;DHT22;8524;57.650;11.926;2023-03-01T06:04:59;-2.70;99.90
16814;DHT22;8524;57.650;11.926;2023-03-01T06:07:26;-2.70;99.90
16814;DHT22;8524;57.650;11.926;2023-03-01T06:09:54;-2.60;99.90
16814;DHT22;8524;57.650;11.926;2023-03-01T06:12:21;-2.60;99.90
16814;DHT22;8524;57.650;11.926;2023-03-01T06:14:48;-2.60;99.90
16814;DHT22;8524;57.650;11.926;2023-03-01T06:17:17;-2.60;99.90
16814;DHT22;8524;57.650;11.926;2023-03-01T06:19:44;-2.60;99.90
16814;DHT22;8524;57.650;11.926;2023-03-01T06:22:15;-2.60;99.90
16814;DHT22;8524;57.650;11.926;2023-03-01T06:24:42;-2.50;99.90
16814;DHT22;8524;57.650;11.926;2023-03-01T06:27:09;-2.60;99.90
16814;DHT22;8524;57.650;11.926;2023-03-01T06:29:36;-2.60;99.90
16814;DHT22;8524;57.650;11.926;2023-03-01T06:32:03;-2.50;99.90
16814;DHT22;8524;57.650;11.926;2023-03-01T06:34:32;-2.50;99.90
16814;DHT22;8524;57.650;11.926;2023-03-01T06:36:59;-2.50;99.90
16814;DHT22;8524;57.650;11.926;2023-03-01T06:39:28;-2.50;99.90
16814;DHT22;8524;57.650;11.926;2023-03-01T06:41:55;-2.50;99.90
16814;DHT22;8524;57.650;11.926;2023-03-01T06:44:22;-2.10;99.90
16814;DHT22;8524;57.650;11.926;2023-03-01T06:46:49;-1.80;99.90
16814;DHT22;8524;57.650;11.926;2023-03-01T06:49:19;-1.40;99.90
16814;DHT22;8524;57.650;11.926;2023-03-01T06:51:48;-1.10;99.90
16814;DHT22;8524;57.650;11.926;2023-03-01T06:54:17;-1.00;99.90
16814;DHT22;8524;57.650;11.926;2023-03-01T06:56:47;-1.00;99.90
16814;DHT22;8524;57.650;11.926;2023-03-01T06:59:15;-1.10;99.90
16814;DHT22;8524;57.650;11.926;2023-03-01T07:01:42;-1.20;99.90
16814;DHT22;8524;57.650;11.926;2023-03-01T07:04:20;-1.20;99.90
16814;DHT22;8524;57.650;11.926;2023-03-01T07:06:52;-1.10;99.90
16814;DHT22;8524;57.650;11.926;2023-03-01T07:09:21;-1.10;99.90
16814;DHT22;8524;57.650;11.926;2023-03-01T07:11:49;-1.00;99.90
16814;DHT22;8524;57.650;11.926;2023-03-01T07:14:17;-0.90;99.90
16814;DHT22;8524;57.650;11.926;2023-03-01T07:16:45;-0.80;99.90
16814;DHT22;8524;57.650;11.926;2023-03-01T07:19:12;-0.80;99.90
16814;DHT22;8524;57.650;11.926;2023-03-01T07:21:39;-0.70;99.90
16814;DHT22;8524;57.650;11.926;2023-03-01T07:24:09;-0.70;99.90
16814;DHT22;8524;57.650;11.926;2023-03-01T07:26:39;-0.50;99.90
16814;DHT22;8524;57.650;11.926;2023-03-01T07:29:11;-0.30;99.90
16814;DHT22;8524;57.650;11.926;2023-03-01T07:31:40;-0.10;99.90
16814;DHT22;8524;57.650;11.926;2023-03-01T07:34:07;0.20;99.90
16814;DHT22;8524;57.650;11.926;2023-03-01T07:36:35;0.50;99.90
16814;DHT22;8524;57.650;11.926;2023-03-01T07:39:03;0.60;99.90
16814;DHT22;8524;57.650;11.926;2023-03-01T07:41:31;0.80;99.90
16814;DHT22;8524;57.650;11.926;2023-03-01T07:43:58;0.90;99.90
16814;DHT22;8524;57.650;11.926;2023-03-01T07:46:26;1.00;99.90
16814;DHT22;8524;57.650;11.926;2023-03-01T07:48:53;1.10;99.90
16814;DHT22;8524;57.650;11.926;2023-03-01T07:51:20;1.20;99.90
16814;DHT22;8524;57.650;11.926;2023-03-01T07:53:48;1.30;99.90
16814;DHT22;8524;57.650;11.926;2023-03-01T07:56:16;1.40;99.90
16814;DHT22;8524;57.650;11.926;2023-03-01T07:58:46;1.30;99.90
16814;DHT22;8524;57.650;11.926;2023-03-01T08:01:14;1.40;99.90
16814;DHT22;8524;57.650;11.926;2023-03-01T08:03:42;1.50;99.90
16814;DHT22;8524;57.650;11.926;2023-03-01T08:06:11;1.50;99.90
16814;DHT22;8524;57.650;11.926;2023-03-01T08:08:39;1.70;99.90
16814;DHT22;8524;57.650;11.926;2023-03-01T08:11:07;2.00;99.90
16814;DHT22;8524;57.650;11.926;2023-03-01T08:13:36;2.10;99.90
16814;DHT22;8524;57.650;11.926;2023-03-01T08:16:15;2.30;99.90
16814;DHT22;8524;57.650;11.926;2023-03-01T08:18:46;2.40;99.90
16814;DHT22;8524;57.650;11.926;2023-03-01T08:21:18;2.50;99.90
16814;DHT22;8524;57.650;11.926;2023-03-01T08:23:48;2.60;99.90
16814;DHT22;8524;57.650;11.926;2023-03-01T08:26:17;2.70;99.90
16814;DHT22;8524;57.650;11.926;2023-03-01T08:28:46;2.80;99.90
16814;DHT22;8524;57.650;11.926;2023-03-01T08:31:17;2.90;99.90
16814;DHT22;8524;57.650;11.926;2023-03-01T08:33:45;3.10;99.90
16814;DHT22;8524;57.650;11.926;2023-03-01T08:36:17;3.20;99.90
16814;DHT22;8524;57.650;11.926;2023-03-01T08:38:48;3.30;99.90
16814;DHT22;8524;57.650;11.926;2023-03-01T08:41:19;3.40;99.90
16814;DHT22;8524;57.650;11.926;2023-03-01T08:43:56;3.50;99.90
16814;DHT22;8524;57.650;11.926;2023-03-01T08:46:27;3.60;99.90
16814;DHT22;8524;57.650;11.926;2023-03-01T08:48:55;3.70;99.90
16814;DHT22;8524;57.650;11.926;2023-03-01T08:51:31;3.80;99.90
16814;DHT22;8524;57.650;11.926;2023-03-01T08:54:02;3.90;99.90
16814;DHT22;8524;57.650;11.926;2023-03-01T08:56:36;4.10;99.90
16814;DHT22;8524;57.650;11.926;2023-03-01T08:59:03;4.20;99.90
16814;DHT22;8524;57.650;11.926;2023-03-01T09:01:53;4.20;99.90
16814;DHT22;8524;57.650;11.926;2023-03-01T09:04:21;4.20;99.90
16814;DHT22;8524;57.650;11.926;2023-03-01T09:06:48;4.30;99.90
16814;DHT22;8524;57.650;11.926;2023-03-01T09:09:17;4.30;99.90
16814;DHT22;8524;57.650;11.926;2023-03-01T09:11:45;4.40;99.90
16814;DHT22;8524;57.650;11.926;2023-03-01T09:14:18;4.40;99.90
16814;DHT22;8524;57.650;11.926;2023-03-01T09:16:48;4.50;99.90
16814;DHT22;8524;57.650;11.926;2023-03-01T09:19:16;4.60;99.90
16814;DHT22;8524;57.650;11.926;2023-03-01T09:21:43;4.60;99.90
16814;DHT22;8524;57.650;11.926;2023-03-01T09:24:18;4.70;99.90
16814;DHT22;8524;57.650;11.926;2023-03-01T09:26:56;4.80;99.90
16814;DHT22;8524;57.650;11.926;2023-03-01T09:29:26;4.90;99.90
16814;DHT22;8524;57.650;11.926;2023-03-01T09:31:59;4.90;99.90
16814;DHT22;8524;57.650;11.926;2023-03-01T09:34:26;5.00;99.90
16814;DHT22;8524;57.650;11.926;2023-03-01T09:36:54;5.10;99.90
16814;DHT22;8524;57.650;11.926;2023-03-01T09:39:21;5.30;99.90
16814;DHT22;8524;57.650;11.926;2023-03-01T09:41:53;5.30;99.90
16814;DHT22;8524;57.650;11.926;2023-03-01T09:44:29;5.20;99.90
16814;DHT22;8524;57.650;11.926;2023-03-01T09:47:15;5.30;99.90
16814;DHT22;8524;57.650;11.926;2023-03-01T09:49:44;5.40;99.90
16814;DHT22;8524;57.650;11.926;2023-03-01T09:52:21;5.70;99.90
16814;DHT22;8524;57.650;11.926;2023-03-01T09:54:54;5.60;99.90
16814;DHT22;8524;57.650;11.926;2023-03-01T09:57:28;5.70;99.90
16814;DHT22;8524;57.650;11.926;2023-03-01T10:00:07;5.90;99.90
16814;DHT22;8524;57.650;11.926;2023-03-01T10:02:49;6.00;99.90
16814;DHT22;8524;57.650;11.926;2023-03-01T10:05:41;5.90;99.90
16814;DHT22;8524;57.650;11.926;2023-03-01T10:08:30;6.20;99.90
16814;DHT22;8524;57.650;11.926;2023-03-01T10:11:02;6.10;99.90
16814;DHT22;8524;57.650;11.926;2023-03-01T10:13:37;6.10;99.90
16814;DHT22;8524;57.650;11.926;2023-03-01T10:16:13;6.20;99.90
16814;DHT22;8524;57.650;11.926;2023-03-01T10:18:55;6.20;99.90
16814;DHT22;8524;57.650;11.926;2023-03-01T10:21:22;6.30;99.90
16814;DHT22;8524;57.650;11.926;2023-03-01T10:23:50;6.30;99.90
16814;DHT22;8524;57.650;11.926;2023-03-01T10:26:40;6.40;99.90
16814;DHT22;8524;57.650;11.926;2023-03-01T10:29:11;6.40;99.90
16814;DHT22;8524;57.650;11.926;2023-03-01T10:31:43;6.40;99.90
16814;DHT22;8524;57.650;11.926;2023-03-01T10:34:15;6.30;99.90
16814;DHT22;8524;57.650;11.926;2023-03-01T10:36:44;6.30;99.90
16814;DHT22;8524;57.650;11.926;2023-03-01T10:39:14;6.40;99.90
16814;DHT22;8524;57.650;11.926;2023-03-01T10:41:59;6.60;99.90
16814;DHT22;8524;57.650;11.926;2023-03-01T10:44:43;6.60;99.90
16814;DHT22;8524;57.650;11.926;2023-03-01T10:47:19;6.60;99.90
16814;DHT22;8524;57.650;11.926;2023-03-01T10:49:54;6.60;99.90
16814;DHT22;8524;57.650;11.926;2023-03-01T10:52:25;6.80;99.90
16814;DHT22;8524;57.650;11.926;2023-03-01T10:54:55;7.10;99.90
16814;DHT22;8524;57.650;11.926;2023-03-01T10:57:33;7.00;99.90
16814;DHT22;8524;57.650;11.926;2023-03-01T11:00:21;7.00;99.90
16814;DHT22;8524;57.650;11.926;2023-03-01T11:02:51;7.10;99.90
16814;DHT22;8524;57.650;11.926;2023-03-01T11:05:29;7.30;99.90
16814;DHT22;8524;57.650;11.926;2023-03-01T11:08:00;7.30;99.90
16814;DHT22;8524;57.650;11.926;2023-03-01T11:10:30;7.20;99.90
16814;DHT22;8524;57.650;11.926;2023-03-01T11:13:08;7.30;99.90
16814;DHT22;8524;57.650;11.926;2023-03-01T11:15:41;7.30;99.90
16814;DHT22;8524;57.650;11.926;2023-03-01T11:18:22;7.50;99.90
16814;DHT22;8524;57.650;11.926;2023-03-01T11:21:05;7.50;99.90
16814;DHT22;8524;57.650;11.926;2023-03-01T11:23:43;7.50;99.90
16814;DHT22;8524;57.650;11.926;2023-03-01T11:26:13;7.60;99.90
16814;DHT22;8524;57.650;11.926;2023-03-01T11:28:55;7.70;99.90
16814;DHT22;8524;57.650;11.926;2023-03-01T11:31:25;7.60;99.90
16814;DHT22;8524;57.650;11.926;2023-03-01T11:33:56;7.50;99.90
16814;DHT22;8524;57.650;11.926;2023-03-01T11:36:35;7.50;99.90
16814;DHT22;8524;57.650;11.926;2023-03-01T11:39:18;7.50;99.90
16814;DHT22;8524;57.650;11.926;2023-03-01T11:42:10;7.50;99.90
16814;DHT22;8524;57.650;11.926;2023-03-01T11:44:41;7.70;99.90
16814;DHT22;8524;57.650;11.926;2023-03-01T11:47:33;7.90;99.90
16814;DHT22;8524;57.650;11.926;2023-03-01T11:50:24;8.00;99.90
16814;DHT22;8524;57.650;11.926;2023-03-01T11:53:27;8.00;99.90
16814;DHT22;8524;57.650;11.926;2023-03-01T11:56:16;8.00;99.90
16814;DHT22;8524;57.650;11.926;2023-03-01T12:02:20;8.20;99.90
16814;DHT22;8524;57.650;11.926;2023-03-01T12:08:06;8.30;99.90
16814;DHT22;8524;57.650;11.926;2023-03-01T12:10:46;8.30;99.90
16814;DHT22;8524;57.650;11.926;2023-03-01T12:13:46;8.40;99.90
16814;DHT22;8524;57.650;11.926;2023-03-01T12:16:34;8.40;99.90
16814;DHT22;8524;57.650;11.926;2023-03-01T12:19:38;8.50;99.90
16814;DHT22;8524;57.650;11.926;2023-03-01T12:22:31;8.50;99.90
16814;DHT22;8524;57.650;11.926;2023-03-01T12:25:27;8.40;99.90
16814;DHT22;8524;57.650;11.926;2023-03-01T12:28:32;8.40;99.90
16814;DHT22;8524;57.650;11.926;2023-03-01T12:34:07;8.50;99.90
16814;DHT22;8524;57.650;11.926;2023-03-01T12:37:11;8.70;99.90
16814;DHT22;8524;57.650;11.926;2023-03-01T12:40:13;8.80;99.90
16814;DHT22;8524;57.650;11.926;2023-03-01T12:42:58;8.80;99.90
16814;DHT22;8524;57.650;11.926;2023-03-01T12:45:46;8.70;99.90
16814;DHT22;8524;57.650;11.926;2023-03-01T12:48:32;8.90;99.90
16814;DHT22;8524;57.650;11.926;2023-03-01T12:51:05;8.80;99.90
16814;DHT22;8524;57.650;11.926;2023-03-01T12:53:43;8.80;99.90
16814;DHT22;8524;57.650;11.926;2023-03-01T12:56:15;8.80;99.90
16814;DHT22;8524;57.650;11.926;2023-03-01T12:58:53;8.90;99.90
16814;DHT22;8524;57.650;11.926;2023-03-01T13:01:42;9.00;99.90
16814;DHT22;8524;57.650;11.926;2023-03-01T13:04:31;8.90;99.90
16814;DHT22;8524;57.650;11.926;2023-03-01T13:07:15;8.90;99.90
16814;DHT22;8524;57.650;11.926;2023-03-01T13:09:50;9.00;99.90
16814;DHT22;8524;57.650;11.926;2023-03-01T13:13:00;8.90;99.90
16814;DHT22;8524;57.650;11.926;2023-03-01T13:15:32;8.90;99.90
16814;DHT22;8524;57.650;11.926;2023-03-01T13:18:28;9.00;99.90
16814;DHT22;8524;57.650;11.926;2023-03-01T13:20:57;8.90;99.90
16814;DHT22;8524;57.650;11.926;2023-03-01T13:23:28;8.90;99.90
16814;DHT22;8524;57.650;11.926;2023-03-01T13:26:16;8.90;99.90
16814;DHT22;8524;57.650;11.926;2023-03-01T13:28:51;8.90;99.90
16814;DHT22;8524;57.650;11.926;2023-03-01T13:35:01;9.10;99.90
16814;DHT22;8524;57.650;11.926;2023-03-01T13:37:34;9.20;99.90
16814;DHT22;8524;57.650;11.926;2023-03-01T13:43:31;9.20;99.90
16814;DHT22;8524;57.650;11.926;2023-03-01T13:46:00;9.10;99.90
16814;DHT22;8524;57.650;11.926;2023-03-01T13:48:30;9.20;99.90
16814;DHT22;8524;57.650;11.926;2023-03-01T13:51:04;9.10;99.90
16814;DHT22;8524;57.650;11.926;2023-03-01T13:53:35;9.10;99.90
16814;DHT22;8524;57.650;11.926;2023-03-01T13:56:07;9.10;99.90
16814;DHT22;8524;57.650;11.926;2023-03-01T13:58:46;9.10;99.90
16814;DHT22;8524;57.650;11.926;2023-03-01T14:01:23;9.00;99.90
16814;DHT22;8524;57.650;11.926;2023-03-01T14:03:50;9.00;99.90
16814;DHT22;8524;57.650;11.926;2023-03-01T14:06:21;9.10;99.90
16814;DHT22;8524;57.650;11.926;2023-03-01T14:08:52;9.00;99.90
16814;DHT22;8524;57.650;11.926;2023-03-01T14:12:06;9.00;99.90
16814;DHT22;8524;57.650;11.926;2023-03-01T14:14:45;8.90;99.90
16814;DHT22;8524;57.650;11.926;2023-03-01T14:17:39;8.90;99.90
16814;DHT22;8524;57.650;11.926;2023-03-01T14:20:16;8.80;99.90
16814;DHT22;8524;57.650;11.926;2023-03-01T14:22:46;8.90;99.90
16814;DHT22;8524;57.650;11.926;2023-03-01T14:25:20;9.00;99.90
16814;DHT22;8524;57.650;11.926;2023-03-01T14:27:56;9.10;99.90
16814;DHT22;8524;57.650;11.926;2023-03-01T14:30:25;9.00;99.90
16814;DHT22;8524;57.650;11.926;2023-03-01T14:32:54;8.90;99.90
16814;DHT22;8524;57.650;11.926;2023-03-01T14:35:24;8.90;99.90
16814;DHT22;8524;57.650;11.926;2023-03-01T14:37:53;8.90;99.90
16814;DHT22;8524;57.650;11.926;2023-03-01T14:40:26;8.80;99.90
16814;DHT22;8524;57.650;11.926;2023-03-01T14:42:56;8.70;99.90
16814;DHT22;8524;57.650;11.926;2023-03-01T14:45:26;8.60;99.90
16814;DHT22;8524;57.650;11.926;2023-03-01T14:47:55;8.50;99.90
16814;DHT22;8524;57.650;11.926;2023-03-01T14:50:25;8.40;99.90
16814;DHT22;8524;57.650;11.926;2023-03-01T14:52:58;8.20;99.90
16814;DHT22;8524;57.650;11.926;2023-03-01T14:55:28;8.10;99.90
16814;DHT22;8524;57.650;11.926;2023-03-01T14:57:57;8.10;99.90
16814;DHT22;8524;57.650;11.926;2023-03-01T15:00:26;8.00;99.90
16814;DHT22;8524;57.650;11.926;2023-03-01T15:02:55;8.00;99.90
16814;DHT22;8524;57.650;11.926;2023-03-01T15:05:26;7.90;99.90
16814;DHT22;8524;57.650;11.926;2023-03-01T15:07:56;7.90;99.90
16814;DHT22;8524;57.650;11.926;2023-03-01T15:10:25;7.80;99.90
16814;DHT22;8524;57.650;11.926;2023-03-01T15:12:53;7.70;99.90
16814;DHT22;8524;57.650;11.926;2023-03-01T15:15:34;7.70;99.90
16814;DHT22;8524;57.650;11.926;2023-03-01T15:18:03;7.60;99.90
16814;DHT22;8524;57.650;11.926;2023-03-01T15:20:31;7.60;99.90
16814;DHT22;8524;57.650;11.926;2023-03-01T15:23:03;7.50;99.90
16814;DHT22;8524;57.650;11.926;2023-03-01T15:25:32;7.40;99.90
16814;DHT22;8524;57.650;11.926;2023-03-01T15:28:01;7.30;99.90
16814;DHT22;8524;57.650;11.926;2023-03-01T15:30:30;7.20;99.90
16814;DHT22;8524;57.650;11.926;2023-03-01T15:33:20;7.10;99.90
16814;DHT22;8524;57.650;11.926;2023-03-01T15:35:54;7.10;99.90
16814;DHT22;8524;57.650;11.926;2023-03-01T15:38:30;7.00;99.90
16814;DHT22;8524;57.650;11.926;2023-03-01T15:40:58;7.00;99.90
16814;DHT22;8524;57.650;11.926;2023-03-01T15:43:41;6.90;99.90
16814;DHT22;8524;57.650;11.926;2023-03-01T15:46:18;6.90;99.90
16814;DHT22;8524;57.650;11.926;2023-03-01T15:48:46;6.70;99.90
16814;DHT22;8524;57.650;11.926;2023-03-01T15:51:15;6.70;99.90
16814;DHT22;8524;57.650;11.926;2023-03-01T15:53:47;6.60;99.90
16814;DHT22;8524;57.650;11.926;2023-03-01T15:56:15;6.50;99.90
16814;DHT22;8524;57.650;11.926;2023-03-01T15:58:43;6.40;99.90
16814;DHT22;8524;57.650;11.926;2023-03-01T16:01:12;6.40;99.90
16814;DHT22;8524;57.650;11.926;2023-03-01T16:03:40;6.40;99.90
16814;DHT22;8524;57.650;11.926;2023-03-01T16:06:09;6.30;99.90
16814;DHT22;8524;57.650;11.926;2023-03-01T16:08:36;6.30;99.90
16814;DHT22;8524;57.650;11.926;2023-03-01T16:11:05;6.20;99.90
16814;DHT22;8524;57.650;11.926;2023-03-01T16:13:37;6.20;99.90
16814;DHT22;8524;57.650;11.926;2023-03-01T16:16:04;6.00;99.90
16814;DHT22;8524;57.650;11.926;2023-03-01T16:18:31;6.00;99.90
16814;DHT22;8524;57.650;11.926;2023-03-01T16:20:58;6.00;99.90
16814;DHT22;8524;57.650;11.926;2023-03-01T16:23:26;5.90;99.90
16814;DHT22;8524;57.650;11.926;2023-03-01T16:25:53;5.80;99.90
16814;DHT22;8524;57.650;11.926;2023-03-01T16:28:21;5.80;99.90